createdAt,value
2018-03-30T00:02:21.919Z,0.66
2018-03-30T00:04:47.992Z,0.73
2018-03-30T00:07:13.985Z,0.77
2018-03-30T00:09:52.223Z,0.74
2018-03-30T00:12:18.268Z,0.62
2018-03-30T00:14:44.296Z,0.21
2018-03-30T00:17:10.405Z,0.18
2018-03-30T00:19:36.522Z,0.27
2018-03-30T00:22:02.511Z,0.43
2018-03-30T00:24:28.545Z,0.55
2018-03-30T00:26:54.781Z,0.44
2018-03-30T00:29:20.825Z,0.58
2018-03-30T00:31:46.892Z,0.28
2018-03-30T00:34:12.937Z,0.11
2018-03-30T00:36:38.984Z,0.37
2018-03-30T00:39:04.989Z,0.34
2018-03-30T00:41:31.103Z,0.42
2018-03-30T00:43:57.138Z,0.27
2018-03-30T00:46:23.213Z,0.28
2018-03-30T00:48:49.213Z,0.31
2018-03-30T00:51:15.285Z,0.46
2018-03-30T00:53:46.262Z,0.59
2018-03-30T00:56:12.270Z,0.57
2018-03-30T00:58:38.389Z,0.20
2018-03-30T01:01:04.470Z,-0.07
2018-03-30T01:03:30.509Z,-0.01
2018-03-30T01:05:56.521Z,0.16
2018-03-30T01:08:22.584Z,0.25
2018-03-30T01:10:48.645Z,0.41
2018-03-30T01:13:14.644Z,0.41
2018-03-30T01:15:40.734Z,0.48
2018-03-30T01:18:06.817Z,0.63
2018-03-30T01:20:32.848Z,0.52
2018-03-30T01:22:58.909Z,0.08
2018-03-30T01:25:25.014Z,0.18
2018-03-30T01:27:50.982Z,0.29
2018-03-30T01:30:17.699Z,0.19
2018-03-30T01:32:43.826Z,-0.08
2018-03-30T01:35:09.863Z,0.08
2018-03-30T01:37:35.888Z,-0.23
2018-03-30T01:40:01.933Z,-0.27
2018-03-30T01:42:27.998Z,-0.33
2018-03-30T01:44:54.034Z,-0.08
2018-03-30T01:47:20.077Z,0.07
2018-03-30T01:49:46.122Z,0.10
2018-03-30T01:52:12.242Z,0.17
2018-03-30T01:54:38.298Z,0.10
2018-03-30T01:57:04.434Z,0.16
2018-03-30T01:59:30.418Z,0.26
2018-03-30T02:01:56.446Z,0.38
2018-03-30T02:04:22.418Z,0.22
2018-03-30T02:06:48.481Z,0.27
2018-03-30T02:09:14.509Z,-0.01
2018-03-30T02:11:40.533Z,-0.29
2018-03-30T02:14:06.573Z,-0.31
2018-03-30T02:16:32.564Z,-0.39
2018-03-30T02:18:58.594Z,-0.35
2018-03-30T02:21:24.626Z,-0.33
2018-03-30T02:23:50.613Z,-0.22
2018-03-30T02:26:16.653Z,-0.24
2018-03-30T02:28:42.661Z,-0.13
2018-03-30T02:31:08.687Z,-0.09
2018-03-30T02:33:34.694Z,-0.09
2018-03-30T02:36:00.730Z,-0.09
2018-03-30T02:38:26.812Z,-0.04
2018-03-30T02:40:52.916Z,0.16
2018-03-30T02:43:18.950Z,0.08
2018-03-30T02:45:44.949Z,-0.15
2018-03-30T02:48:11.108Z,-0.39
2018-03-30T02:50:37.113Z,-0.46
2018-03-30T02:53:03.139Z,-0.49
2018-03-30T02:55:29.265Z,-0.54
2018-03-30T02:57:55.363Z,-0.45
2018-03-30T03:00:21.430Z,-0.56
2018-03-30T03:02:48.890Z,-0.60
2018-03-30T03:05:14.961Z,-0.57
2018-03-30T03:07:41.007Z,-0.27
2018-03-30T03:10:07.069Z,-0.30
2018-03-30T03:12:33.110Z,-0.24
2018-03-30T03:14:59.189Z,-0.15
2018-03-30T03:17:25.219Z,-0.13
2018-03-30T03:19:51.286Z,-0.17
2018-03-30T03:22:17.340Z,-0.13
2018-03-30T03:24:43.355Z,-0.24
2018-03-30T03:27:09.404Z,-0.26
2018-03-30T03:29:35.458Z,-0.19
2018-03-30T03:32:01.514Z,-0.30
2018-03-30T03:34:27.564Z,-0.31
2018-03-30T03:36:53.622Z,-0.29
2018-03-30T03:39:19.596Z,-0.48
2018-03-30T03:41:45.621Z,-0.46
2018-03-30T03:44:11.696Z,-0.35
2018-03-30T03:46:37.802Z,-0.33
2018-03-30T03:49:03.885Z,-0.37
2018-03-30T03:51:29.976Z,-0.48
2018-03-30T03:53:55.992Z,-0.43
2018-03-30T03:56:21.957Z,-0.44
2018-03-30T03:58:48.021Z,-0.37
2018-03-30T04:01:14.134Z,-0.37
2018-03-30T04:03:40.159Z,-0.36
2018-03-30T04:06:06.188Z,-0.36
2018-03-30T04:08:32.213Z,-0.23
2018-03-30T04:10:58.217Z,-0.19
2018-03-30T04:13:24.244Z,-0.24
2018-03-30T04:15:50.298Z,-0.27
2018-03-30T04:18:16.645Z,-0.28
2018-03-30T04:20:42.689Z,-0.31
2018-03-30T04:23:08.720Z,-0.43
2018-03-30T04:25:34.826Z,-0.29
2018-03-30T04:28:00.821Z,-0.47
2018-03-30T04:30:26.894Z,-0.32
2018-03-30T04:32:52.945Z,-0.28
2018-03-30T04:35:18.994Z,-0.42
2018-03-30T04:37:45.013Z,-0.31
2018-03-30T04:40:11.035Z,-0.41
2018-03-30T04:42:37.085Z,-0.23
2018-03-30T04:45:04.434Z,-0.24
2018-03-30T04:47:30.476Z,-0.27
2018-03-30T04:49:56.517Z,-0.25
2018-03-30T04:52:22.557Z,-0.24
2018-03-30T04:54:48.604Z,-0.37
2018-03-30T04:57:14.690Z,-0.23
2018-03-30T04:59:40.689Z,-0.57
2018-03-30T05:02:06.765Z,-0.60
2018-03-30T05:04:32.813Z,-0.67
2018-03-30T05:06:58.846Z,-0.66
2018-03-30T05:09:24.949Z,-0.68
2018-03-30T05:11:50.999Z,-0.53
2018-03-30T05:14:17.014Z,-0.46
2018-03-30T05:16:43.076Z,-0.48
2018-03-30T05:19:09.121Z,-0.36
2018-03-30T05:21:35.182Z,-0.31
2018-03-30T05:24:01.254Z,-0.17
2018-03-30T05:26:27.288Z,-0.09
2018-03-30T05:28:53.305Z,-0.05
2018-03-30T05:31:19.322Z,0.08
2018-03-30T05:33:45.402Z,0.21
2018-03-30T05:36:11.433Z,0.17
2018-03-30T05:38:37.473Z,0.08
2018-03-30T05:41:03.479Z,0.04
2018-03-30T05:43:29.623Z,0.31
2018-03-30T05:45:55.646Z,0.35
2018-03-30T05:48:21.723Z,0.19
2018-03-30T05:50:47.672Z,0.36
2018-03-30T05:53:13.769Z,0.43
2018-03-30T05:55:39.813Z,0.37
2018-03-30T05:58:05.848Z,0.54
2018-03-30T06:00:31.924Z,0.76
2018-03-30T06:02:58.047Z,0.74
2018-03-30T06:05:24.082Z,0.91
2018-03-30T06:07:50.110Z,0.92
2018-03-30T06:10:16.162Z,1.07
2018-03-30T06:12:42.210Z,1.13
2018-03-30T06:15:08.277Z,1.16
2018-03-30T06:17:34.317Z,1.04
2018-03-30T06:20:00.357Z,1.06
2018-03-30T06:22:26.456Z,0.98
2018-03-30T06:24:52.533Z,1.06
2018-03-30T06:27:18.554Z,1.28
2018-03-30T06:29:44.623Z,1.42
2018-03-30T06:32:10.737Z,1.48
2018-03-30T06:34:36.746Z,1.62
2018-03-30T06:37:02.804Z,1.81
2018-03-30T06:39:28.838Z,2.19
2018-03-30T06:41:54.922Z,2.36
2018-03-30T06:44:20.931Z,2.64
2018-03-30T06:46:46.985Z,2.97
2018-03-30T06:49:13.001Z,3.21
2018-03-30T06:51:39.032Z,3.55
2018-03-30T06:54:06.101Z,3.87
2018-03-30T06:56:32.157Z,3.92
2018-03-30T06:58:58.217Z,4.05
2018-03-30T07:01:24.229Z,4.16
2018-03-30T07:03:50.338Z,4.40
2018-03-30T07:06:16.361Z,4.63
2018-03-30T07:08:42.345Z,4.88
2018-03-30T07:11:08.437Z,5.37
2018-03-30T07:13:34.489Z,5.56
2018-03-30T07:16:00.573Z,5.75
2018-03-30T07:18:26.710Z,5.77
2018-03-30T07:20:52.800Z,5.80
2018-03-30T07:23:18.806Z,5.65
2018-03-30T07:25:44.888Z,5.48
2018-03-30T07:28:10.908Z,5.39
2018-03-30T07:30:36.969Z,5.21
2018-03-30T07:33:03.020Z,5.35
2018-03-30T07:35:29.081Z,5.10
2018-03-30T07:37:55.125Z,5.13
2018-03-30T07:40:21.090Z,5.16
2018-03-30T07:42:47.117Z,5.38
2018-03-30T07:45:13.129Z,5.47
2018-03-30T07:47:39.154Z,5.58
2018-03-30T07:50:05.187Z,5.74
2018-03-30T07:52:31.350Z,6.13
2018-03-30T07:54:57.403Z,6.47
2018-03-30T07:57:23.418Z,6.46
2018-03-30T07:59:49.494Z,6.92
2018-03-30T08:02:15.509Z,7.03
2018-03-30T08:04:41.561Z,7.66
2018-03-30T08:07:07.763Z,7.53
2018-03-30T08:09:33.817Z,7.46
2018-03-30T08:11:59.864Z,7.50
2018-03-30T08:14:25.934Z,7.80
2018-03-30T08:16:51.965Z,7.97
2018-03-30T08:19:17.974Z,8.07
2018-03-30T08:21:44.050Z,7.89
2018-03-30T08:24:10.082Z,8.20
2018-03-30T08:26:36.057Z,8.23
2018-03-30T08:29:02.040Z,8.48
2018-03-30T08:31:28.073Z,8.50
2018-03-30T08:33:54.138Z,8.55
2018-03-30T08:36:20.155Z,8.35
2018-03-30T08:38:46.200Z,8.52
2018-03-30T08:41:12.283Z,8.66
2018-03-30T08:43:38.448Z,8.86
2018-03-30T08:46:04.480Z,8.85
2018-03-30T08:48:30.521Z,9.17
2018-03-30T08:50:56.507Z,9.26
2018-03-30T08:53:22.575Z,9.32
2018-03-30T08:55:48.645Z,9.01
2018-03-30T08:58:14.686Z,9.09
2018-03-30T09:00:40.717Z,9.27
2018-03-30T09:03:06.734Z,9.23
2018-03-30T09:05:32.765Z,9.42
2018-03-30T09:07:58.816Z,9.80
2018-03-30T09:10:24.889Z,9.68
2018-03-30T09:12:50.934Z,9.82
2018-03-30T09:15:17.037Z,9.67
2018-03-30T09:17:43.169Z,9.93
2018-03-30T09:20:09.282Z,9.95
2018-03-30T09:22:35.447Z,10.02
2018-03-30T09:25:01.485Z,10.07
2018-03-30T09:27:27.481Z,10.15
2018-03-30T09:29:53.530Z,10.28
2018-03-30T09:32:19.606Z,10.31
2018-03-30T09:34:45.640Z,10.20
2018-03-30T09:37:11.694Z,10.34
2018-03-30T09:39:37.753Z,10.29
2018-03-30T09:42:03.851Z,10.28
2018-03-30T09:44:29.835Z,10.28
2018-03-30T09:46:55.864Z,10.24
2018-03-30T09:49:21.907Z,10.44
2018-03-30T09:51:47.969Z,10.56
2018-03-30T09:54:14.032Z,10.59
2018-03-30T09:56:40.382Z,10.73
2018-03-30T09:59:06.446Z,10.92
2018-03-30T10:01:32.653Z,10.81
2018-03-30T10:03:58.717Z,10.78
2018-03-30T10:06:24.772Z,10.84
2018-03-30T10:08:50.861Z,10.93
2018-03-30T10:11:16.889Z,11.14
2018-03-30T10:13:42.907Z,11.35
2018-03-30T10:16:08.997Z,11.15
2018-03-30T10:18:35.036Z,11.38
2018-03-30T10:21:01.130Z,11.06
2018-03-30T10:23:27.190Z,11.27
2018-03-30T10:25:53.280Z,11.58
2018-03-30T10:28:19.406Z,11.58
2018-03-30T10:30:45.466Z,11.71
2018-03-30T10:33:11.531Z,11.21
2018-03-30T10:35:37.597Z,11.55
2018-03-30T10:38:03.734Z,11.55
2018-03-30T10:40:29.782Z,11.68
2018-03-30T10:42:55.869Z,11.93
2018-03-30T10:45:23.290Z,11.98
2018-03-30T10:47:49.384Z,11.96
2018-03-30T10:50:15.490Z,12.21
2018-03-30T10:52:41.599Z,12.39
2018-03-30T10:55:07.674Z,12.31
2018-03-30T10:57:33.768Z,12.38
2018-03-30T11:00:00.279Z,12.47
2018-03-30T11:02:26.414Z,12.76
2018-03-30T11:04:52.496Z,12.74
2018-03-30T11:07:18.490Z,13.00
2018-03-30T11:09:44.602Z,12.95
2018-03-30T11:12:10.640Z,13.26
2018-03-30T11:14:36.731Z,13.38
2018-03-30T11:17:02.825Z,13.57
2018-03-30T11:19:28.829Z,13.50
2018-03-30T11:21:54.875Z,13.61
2018-03-30T11:24:21.040Z,13.53
2018-03-30T11:26:47.097Z,13.59
2018-03-30T11:29:13.165Z,13.83
2018-03-30T11:31:39.268Z,14.04
2018-03-30T11:34:05.332Z,14.05
2018-03-30T11:36:31.389Z,13.53
2018-03-30T11:38:57.496Z,13.73
2018-03-30T11:41:23.521Z,13.95
2018-03-30T11:43:49.904Z,13.93
2018-03-30T11:46:15.929Z,13.76
2018-03-30T11:48:41.970Z,13.67
2018-03-30T11:51:08.033Z,13.53
2018-03-30T11:53:34.114Z,13.77
2018-03-30T11:56:00.165Z,13.82
2018-03-30T11:58:26.293Z,14.03
2018-03-30T12:00:52.378Z,13.82
2018-03-30T12:03:18.408Z,14.33
2018-03-30T12:05:44.455Z,14.30
2018-03-30T12:08:10.566Z,14.40
2018-03-30T12:10:36.611Z,14.34
2018-03-30T12:13:03.633Z,14.22
2018-03-30T12:15:29.683Z,14.00
2018-03-30T12:17:55.765Z,14.03
2018-03-30T12:20:21.864Z,14.15
2018-03-30T12:22:47.902Z,14.02
2018-03-30T12:25:13.946Z,14.09
2018-03-30T12:27:40.006Z,14.04
2018-03-30T12:30:06.045Z,13.90
2018-03-30T12:32:32.070Z,13.76
2018-03-30T12:34:58.064Z,13.81
2018-03-30T12:37:24.029Z,14.56
2018-03-30T12:39:50.062Z,14.54
2018-03-30T12:42:16.058Z,14.80
2018-03-30T12:44:42.139Z,14.76
2018-03-30T12:47:08.199Z,15.18
2018-03-30T12:49:34.486Z,15.51
2018-03-30T12:52:00.577Z,15.22
2018-03-30T12:54:26.917Z,15.03
2018-03-30T12:56:52.949Z,15.50
2018-03-30T12:59:18.996Z,15.70
2018-03-30T13:01:45.021Z,15.40
2018-03-30T13:04:11.084Z,15.68
2018-03-30T13:06:37.137Z,15.46
2018-03-30T13:09:03.199Z,15.19
2018-03-30T13:11:29.265Z,15.34
2018-03-30T13:13:55.374Z,15.10
2018-03-30T13:16:21.505Z,15.53
2018-03-30T13:18:47.551Z,15.97
2018-03-30T13:21:13.660Z,15.92
2018-03-30T13:23:39.713Z,16.44
2018-03-30T13:26:05.745Z,16.62
2018-03-30T13:28:31.813Z,16.66
2018-03-30T13:30:57.868Z,16.23
2018-03-30T13:33:23.964Z,15.40
2018-03-30T13:35:50.203Z,15.54
2018-03-30T13:38:16.253Z,15.62
2018-03-30T13:40:42.336Z,15.82
2018-03-30T13:43:08.357Z,15.73
2018-03-30T13:45:34.395Z,15.95
2018-03-30T13:48:00.422Z,15.62
2018-03-30T13:50:27.237Z,15.83
2018-03-30T13:53:12.161Z,16.04
2018-03-30T13:55:41.159Z,15.31
2018-03-30T13:58:15.148Z,14.71
2018-03-30T14:00:42.969Z,14.92
2018-03-30T14:03:08.953Z,14.97
2018-03-30T14:05:59.980Z,14.69
2018-03-30T14:08:26.009Z,14.90
2018-03-30T14:10:59.117Z,14.03
2018-03-30T14:13:25.169Z,14.20
2018-03-30T14:15:54.040Z,14.14
2018-03-30T14:18:33.877Z,14.52
2018-03-30T14:21:10.707Z,14.87
2018-03-30T14:23:49.428Z,15.05
2018-03-30T14:26:21.071Z,15.00
2018-03-30T14:28:47.859Z,15.20
2018-03-30T14:34:16.038Z,15.39
2018-03-30T14:36:44.842Z,16.13
2018-03-30T14:39:25.720Z,16.87
2018-03-30T14:41:51.664Z,16.76
2018-03-30T14:44:18.677Z,16.34
2018-03-30T14:47:01.353Z,16.12
2018-03-30T14:49:47.117Z,15.93
2018-03-30T14:52:16.025Z,16.00
2018-03-30T14:54:51.110Z,15.64
2018-03-30T14:57:17.926Z,14.85
2018-03-30T14:59:48.861Z,14.61
2018-03-30T15:02:24.753Z,14.44
2018-03-30T15:05:07.467Z,15.17
2018-03-30T15:07:35.381Z,15.71
2018-03-30T15:13:07.356Z,15.39
2018-03-30T15:15:51.720Z,15.29
2018-03-30T15:18:26.722Z,15.00
2018-03-30T15:21:01.734Z,15.30
2018-03-30T15:23:29.345Z,15.17
2018-03-30T15:26:07.005Z,15.49
2018-03-30T15:28:34.919Z,15.78
2018-03-30T15:31:06.836Z,15.68
2018-03-30T15:33:51.526Z,16.29
2018-03-30T15:36:22.324Z,15.68
2018-03-30T15:38:48.346Z,16.87
2018-03-30T15:41:14.325Z,15.54
2018-03-30T15:43:40.309Z,14.63
2018-03-30T15:46:12.135Z,14.80
2018-03-30T15:48:38.197Z,14.15
2018-03-30T15:51:07.226Z,14.33
2018-03-30T15:53:33.025Z,14.55
2018-03-30T15:55:59.014Z,14.37
2018-03-30T15:58:25.019Z,14.62
2018-03-30T16:00:50.974Z,14.16
2018-03-30T16:03:16.987Z,13.95
2018-03-30T16:05:43.017Z,13.85
2018-03-30T16:08:09.079Z,13.83
2018-03-30T16:10:49.069Z,13.46
2018-03-30T16:13:15.139Z,13.29
2018-03-30T16:15:41.317Z,13.65
2018-03-30T16:18:07.319Z,13.56
2018-03-30T16:20:33.217Z,13.38
2018-03-30T16:22:58.945Z,13.28
2018-03-30T16:25:24.707Z,13.09
2018-03-30T16:27:50.474Z,13.21
2018-03-30T16:30:16.270Z,13.14
2018-03-30T16:32:42.042Z,12.90
2018-03-30T16:35:07.861Z,12.75
2018-03-30T16:37:33.571Z,12.78
2018-03-30T16:39:59.340Z,12.74
2018-03-30T16:42:25.195Z,12.69
2018-03-30T16:44:50.939Z,12.55
2018-03-30T16:47:16.695Z,12.53
2018-03-30T16:49:43.461Z,12.51
2018-03-30T16:52:09.252Z,12.43
2018-03-30T16:54:34.974Z,12.33
2018-03-30T16:57:00.790Z,12.23
2018-03-30T16:59:26.633Z,12.24
2018-03-30T17:01:52.401Z,12.21
2018-03-30T17:04:18.229Z,12.14
2018-03-30T17:06:43.979Z,12.12
2018-03-30T17:09:09.751Z,12.00
2018-03-30T17:11:35.514Z,11.77
2018-03-30T17:14:01.321Z,11.66
2018-03-30T17:16:27.203Z,11.61
2018-03-30T17:18:53.036Z,11.53
2018-03-30T17:21:18.747Z,11.42
2018-03-30T17:23:44.601Z,11.36
2018-03-30T17:26:10.364Z,11.36
2018-03-30T17:28:36.120Z,11.39
2018-03-30T17:31:01.961Z,11.30
2018-03-30T17:33:27.898Z,11.21
2018-03-30T17:35:53.688Z,11.16
2018-03-30T17:38:19.475Z,11.10
2018-03-30T17:40:45.320Z,11.05
2018-03-30T17:43:11.073Z,10.90
2018-03-30T17:45:36.863Z,10.83
2018-03-30T17:48:02.583Z,10.76
2018-03-30T17:50:28.338Z,10.74
2018-03-30T17:52:54.298Z,10.62
2018-03-30T17:55:20.050Z,10.56
2018-03-30T17:57:45.830Z,10.50
2018-03-30T18:00:11.631Z,10.49
2018-03-30T18:02:37.416Z,10.42
2018-03-30T18:05:03.504Z,10.40
2018-03-30T18:07:29.297Z,10.34
2018-03-30T18:09:55.041Z,10.34
2018-03-30T18:12:20.793Z,10.46
2018-03-30T18:14:46.551Z,10.37
2018-03-30T18:17:12.616Z,10.37
2018-03-30T18:19:38.384Z,10.29
2018-03-30T18:22:04.162Z,10.20
2018-03-30T18:24:29.913Z,10.16
2018-03-30T18:26:55.729Z,10.08
2018-03-30T18:29:21.516Z,10.14
2018-03-30T18:31:47.404Z,10.00
2018-03-30T18:34:13.204Z,9.97
2018-03-30T18:36:38.962Z,9.99
2018-03-30T18:39:04.747Z,9.99
2018-03-30T18:41:30.571Z,9.91
2018-03-30T18:43:56.461Z,9.84
2018-03-30T18:46:22.305Z,9.78
2018-03-30T18:48:48.077Z,9.72
2018-03-30T18:51:14.021Z,9.74
2018-03-30T18:53:39.736Z,9.74
2018-03-30T18:56:05.606Z,9.82
2018-03-30T18:58:31.358Z,9.77
2018-03-30T19:00:57.053Z,9.76
2018-03-30T19:03:22.908Z,9.74
2018-03-30T19:05:48.706Z,9.65
2018-03-30T19:08:14.540Z,9.66
2018-03-30T19:10:40.299Z,9.61
2018-03-30T19:13:06.024Z,9.53
2018-03-30T19:15:31.782Z,9.56
2018-03-30T19:17:57.923Z,9.45
2018-03-30T19:20:23.662Z,9.39
2018-03-30T19:22:49.455Z,9.41
2018-03-30T19:25:15.260Z,9.37
2018-03-30T19:27:41.066Z,9.35
2018-03-30T19:30:06.862Z,9.39
2018-03-30T19:32:32.637Z,9.45
2018-03-30T19:34:58.406Z,9.38
2018-03-30T19:37:24.141Z,9.47
2018-03-30T19:39:49.943Z,9.35
2018-03-30T19:42:15.765Z,9.24
2018-03-30T19:44:41.969Z,9.25
2018-03-30T19:47:08.225Z,9.23
2018-03-30T19:49:34.005Z,9.29
2018-03-30T19:51:59.839Z,9.21
2018-03-30T19:54:25.679Z,9.15
2018-03-30T19:56:51.517Z,9.21
2018-03-30T19:59:17.293Z,9.10
2018-03-30T20:01:43.072Z,9.14
2018-03-30T20:04:08.818Z,9.22
2018-03-30T20:06:34.668Z,9.14
2018-03-30T20:09:00.405Z,9.10
2018-03-30T20:11:26.240Z,9.17
2018-03-30T20:13:51.978Z,9.14
2018-03-30T20:16:17.853Z,9.22
2018-03-30T20:18:43.672Z,9.13
2018-03-30T20:21:09.428Z,9.15
2018-03-30T20:23:35.197Z,9.10
2018-03-30T20:26:01.009Z,9.03
2018-03-30T20:28:26.860Z,8.98
2018-03-30T20:30:52.642Z,8.98
2018-03-30T20:33:18.406Z,8.98
2018-03-30T20:35:44.260Z,8.95
2018-03-30T20:38:09.995Z,8.99
2018-03-30T20:40:35.763Z,9.00
2018-03-30T20:43:01.558Z,8.99
2018-03-30T20:45:27.314Z,8.98
2018-03-30T20:47:53.062Z,8.94
2018-03-30T20:50:18.860Z,9.00
2018-03-30T20:52:44.614Z,9.01
2018-03-30T20:55:10.395Z,8.99
2018-03-30T20:57:36.165Z,9.00
2018-03-30T21:00:01.962Z,8.96
2018-03-30T21:02:27.713Z,8.92
2018-03-30T21:04:53.564Z,8.97
2018-03-30T21:07:19.321Z,8.93
2018-03-30T21:09:45.056Z,8.95
2018-03-30T21:12:10.821Z,8.91
2018-03-30T21:14:36.633Z,8.85
2018-03-30T21:17:02.373Z,8.86
2018-03-30T21:19:28.118Z,8.83
2018-03-30T21:21:53.877Z,8.82
2018-03-30T21:24:19.915Z,8.84
2018-03-30T21:26:45.747Z,8.82
2018-03-30T21:29:11.553Z,8.83
2018-03-30T21:31:37.363Z,8.82
2018-03-30T21:34:03.139Z,8.91
2018-03-30T21:36:28.882Z,8.86
2018-03-30T21:38:54.714Z,8.86
2018-03-30T21:41:20.477Z,8.88
2018-03-30T21:43:46.258Z,8.83
2018-03-30T21:46:12.005Z,8.79
2018-03-30T21:48:37.770Z,8.76
2018-03-30T21:51:03.590Z,8.80
2018-03-30T21:53:29.323Z,8.77
2018-03-30T21:55:55.086Z,8.72
2018-03-30T21:58:20.854Z,8.77
2018-03-30T22:00:46.750Z,8.69
2018-03-30T22:03:12.492Z,8.66
2018-03-30T22:05:38.277Z,8.60
2018-03-30T22:08:04.010Z,8.53
2018-03-30T22:10:29.758Z,8.44
2018-03-30T22:12:55.502Z,8.49
2018-03-30T22:15:21.218Z,8.43
2018-03-30T22:17:47.070Z,8.42
2018-03-30T22:20:12.802Z,8.35
2018-03-30T22:22:38.535Z,8.32
2018-03-30T22:25:04.267Z,8.33
2018-03-30T22:27:30.010Z,8.29
2018-03-30T22:29:55.746Z,8.22
2018-03-30T22:32:21.571Z,8.21
2018-03-30T22:34:47.318Z,8.17
2018-03-30T22:37:13.055Z,8.19
2018-03-30T22:39:38.797Z,8.12
2018-03-30T22:42:04.546Z,8.12
2018-03-30T22:44:30.348Z,8.16
2018-03-30T22:46:56.073Z,8.20
2018-03-30T22:49:21.929Z,8.16
2018-03-30T22:51:47.722Z,8.13
2018-03-30T22:54:13.473Z,8.13
2018-03-30T22:56:39.236Z,8.06
2018-03-30T22:59:04.977Z,8.03
2018-03-30T23:01:30.761Z,8.09
2018-03-30T23:03:56.489Z,8.07
2018-03-30T23:06:22.332Z,8.08
2018-03-30T23:08:48.101Z,8.17
2018-03-30T23:11:13.898Z,8.11
2018-03-30T23:13:39.697Z,8.06
2018-03-30T23:16:05.494Z,8.01
2018-03-30T23:18:31.271Z,7.99
2018-03-30T23:20:57.048Z,8.05
2018-03-30T23:23:22.776Z,7.94
2018-03-30T23:25:48.593Z,8.02
2018-03-30T23:28:14.393Z,7.94
2018-03-30T23:30:40.270Z,7.91
2018-03-30T23:33:06.050Z,7.94
2018-03-30T23:35:31.838Z,7.79
2018-03-30T23:37:57.592Z,7.71
2018-03-30T23:40:23.381Z,7.73
2018-03-30T23:42:49.117Z,7.70
2018-03-30T23:45:15.052Z,7.64
2018-03-30T23:47:40.797Z,7.61
2018-03-30T23:50:06.536Z,7.65
2018-03-30T23:52:32.315Z,7.56
2018-03-30T23:54:58.111Z,7.62
2018-03-30T23:57:23.853Z,7.61
2018-03-30T23:59:49.653Z,7.64
